map of KMMK home
KMMK - Airport
Location
City:  Meriden, Connecticut, United States
Name:Meriden Markham Municipal Airport
ICAO:KMMK
FAA LID:MMK

Details
Type:Airport (Airfield)
Use:Public/Civil
Latitude:4130'31"N (41.508715)
Longitude:7249'46"W (-72.829477)
Datum:WGS 1984
Elevation:103 ft (31 m)
Variation:13.51W (WMM2015v2 magnetic declination)
0.07 annual change
Runways:1
Longest:3100 × 75 ft (945 × 23 m), paved

Time
Time Zone:UTC-5 (DST-4)
Local Time:

Weather
METAR:KMMK 041353Z AUTO 17006KT 7SM CLR 03/M01 A3008 RMK AO2 SLP188 T00331006 $

Related Locations
Nearby:
Farthest:YAUG: 11776 mi / 18952 km
Augusta [Augusta Airport], WA, AU

Find:

   beyond  
but within

Other Information
Maps:
NOTAMs:
Links:
Sources:

  
  • flag of United States
  • flag of Connecticut
  

Sectional Chart

Flight Planning
at skyvector.com

Satellite Image

Google Maps Satellite view

 

Copyright © 2004-2019 Karl L. Swartz. All rights reserved.
The Great Circle Mapper name and logo are trademarks of the Great Circle Mapper.
All other trademarks mentioned herein belong to their respective owners.
Please see credits for attibutions and further copyright information.

  Follow gcmap on Facebook Follow gcmap on Twitter GCmap on LinkedIn

hCard Microformat

Geo Microformat